sensor_id;sensor_type;location;lat;lon;timestamp;pressure;altitude;pressure_sealevel;temperature;humidity
71795;BME280;59641;45.188;5.712;2023-05-11T00:00:29;99213.56;;;17.35;48.07
71795;BME280;59641;45.188;5.712;2023-05-11T00:02:55;99215.47;;;17.35;48.31
71795;BME280;59641;45.188;5.712;2023-05-11T00:05:21;99212.75;;;17.35;48.27
71795;BME280;59641;45.188;5.712;2023-05-11T00:07:46;99211.94;;;17.34;48.03
71795;BME280;59641;45.188;5.712;2023-05-11T00:10:11;99210.56;;;17.32;48.27
71795;BME280;59641;45.188;5.712;2023-05-11T00:12:37;99209.75;;;17.31;48.26
71795;BME280;59641;45.188;5.712;2023-05-11T00:15:02;99201.91;;;17.30;47.99
71795;BME280;59641;45.188;5.712;2023-05-11T00:17:28;99198.63;;;17.28;48.21
71795;BME280;59641;45.188;5.712;2023-05-11T00:19:53;99206.22;;;17.25;48.08
71795;BME280;59641;45.188;5.712;2023-05-11T00:22:18;99200.25;;;17.23;48.28
71795;BME280;59641;45.188;5.712;2023-05-11T00:24:44;99198.63;;;17.22;48.78
71795;BME280;59641;45.188;5.712;2023-05-11T00:27:09;99199.44;;;17.23;48.61
71795;BME280;59641;45.188;5.712;2023-05-11T00:29:35;99200.25;;;17.23;48.57
71795;BME280;59641;45.188;5.712;2023-05-11T00:32:00;99200.81;;;17.25;48.38
71795;BME280;59641;45.188;5.712;2023-05-11T00:34:25;99196.47;;;17.24;48.50
71795;BME280;59641;45.188;5.712;2023-05-11T00:36:51;99194.81;;;17.23;48.86
71795;BME280;59641;45.188;5.712;2023-05-11T00:39:16;99190.22;;;17.24;48.93
71795;BME280;59641;45.188;5.712;2023-05-11T00:41:42;99188.59;;;17.23;48.70
71795;BME280;59641;45.188;5.712;2023-05-11T00:44:07;99184.25;;;17.22;48.71
71795;BME280;59641;45.188;5.712;2023-05-11T00:46:33;99183.97;;;17.23;48.50
71795;BME280;59641;45.188;5.712;2023-05-11T00:48:58;99183.97;;;17.23;48.44
71795;BME280;59641;45.188;5.712;2023-05-11T00:51:24;99179.91;;;17.21;48.25
71795;BME280;59641;45.188;5.712;2023-05-11T00:53:50;99172.88;;;17.20;48.26
71795;BME280;59641;45.188;5.712;2023-05-11T00:56:16;99172.56;;;17.16;48.49
71795;BME280;59641;45.188;5.712;2023-05-11T00:58:41;99175.03;;;17.13;48.74
71795;BME280;59641;45.188;5.712;2023-05-11T01:01:07;99169.06;;;17.11;48.67
71795;BME280;59641;45.188;5.712;2023-05-11T01:03:33;99166.59;;;17.09;48.54
71795;BME280;59641;45.188;5.712;2023-05-11T01:06:18;99162.28;;;17.08;48.81
71795;BME280;59641;45.188;5.712;2023-05-11T01:11:57;99164.13;;;16.97;49.08
71795;BME280;59641;45.188;5.712;2023-05-11T01:14:40;99167.38;;;16.94;49.08
71795;BME280;59641;45.188;5.712;2023-05-11T01:17:30;99162.22;;;16.93;49.47
71795;BME280;59641;45.188;5.712;2023-05-11T01:20:04;99166.25;;;16.90;49.52
71795;BME280;59641;45.188;5.712;2023-05-11T01:23:01;99166.81;;;16.92;49.33
71795;BME280;59641;45.188;5.712;2023-05-11T01:28:22;99169.53;;;16.92;49.05
71795;BME280;59641;45.188;5.712;2023-05-11T01:30:53;99170.09;;;16.94;49.00
71795;BME280;59641;45.188;5.712;2023-05-11T01:33:25;99167.38;;;16.94;48.77
71795;BME280;59641;45.188;5.712;2023-05-11T01:35:55;99170.09;;;16.94;49.12
71795;BME280;59641;45.188;5.712;2023-05-11T01:38:28;99164.41;;;16.96;48.85
71795;BME280;59641;45.188;5.712;2023-05-11T01:40:59;99163.31;;;16.97;48.62
71795;BME280;59641;45.188;5.712;2023-05-11T01:43:27;99164.66;;;16.99;49.08
71795;BME280;59641;45.188;5.712;2023-05-11T01:45:59;99174.97;;;17.02;48.77
71795;BME280;59641;45.188;5.712;2023-05-11T01:48:27;99176.88;;;17.02;49.14
71795;BME280;59641;45.188;5.712;2023-05-11T01:50:56;99173.09;;;17.03;49.41
71795;BME280;59641;45.188;5.712;2023-05-11T01:53:26;99171.47;;;17.02;49.79
71795;BME280;59641;45.188;5.712;2023-05-11T01:55:54;99182.28;;;17.02;50.52
71795;BME280;59641;45.188;5.712;2023-05-11T01:58:23;99174.97;;;17.02;50.67
71795;BME280;59641;45.188;5.712;2023-05-11T02:00:49;99174.72;;;16.99;50.65
71795;BME280;59641;45.188;5.712;2023-05-11T02:03:17;99177.41;;;16.99;51.20
71795;BME280;59641;45.188;5.712;2023-05-11T02:05:45;99172.25;;;16.97;51.59
71795;BME280;59641;45.188;5.712;2023-05-11T02:08:13;99166.56;;;16.94;51.60
71795;BME280;59641;45.188;5.712;2023-05-11T02:10:40;99170.88;;;16.90;50.71
71795;BME280;59641;45.188;5.712;2023-05-11T02:13:07;99168.72;;;16.87;50.82
71795;BME280;59641;45.188;5.712;2023-05-11T02:15:36;99172.75;;;16.84;50.59
71795;BME280;59641;45.188;5.712;2023-05-11T02:18:06;99170.31;;;16.82;51.37
71795;BME280;59641;45.188;5.712;2023-05-11T02:20:32;99171.13;;;16.83;51.43
71795;BME280;59641;45.188;5.712;2023-05-11T02:22:59;99168.97;;;16.85;50.89
71795;BME280;59641;45.188;5.712;2023-05-11T02:25:25;99174.38;;;16.85;50.29
71795;BME280;59641;45.188;5.712;2023-05-11T02:27:51;99176.28;;;16.85;50.52
71795;BME280;59641;45.188;5.712;2023-05-11T02:30:17;99171.69;;;16.85;50.42
71795;BME280;59641;45.188;5.712;2023-05-11T02:32:53;99172.22;;;16.87;50.59
71795;BME280;59641;45.188;5.712;2023-05-11T02:35:27;99158.69;;;16.87;50.69
71795;BME280;59641;45.188;5.712;2023-05-11T02:37:57;99162.19;;;16.88;50.56
71795;BME280;59641;45.188;5.712;2023-05-11T02:40:31;99158.41;;;16.89;50.17
71795;BME280;59641;45.188;5.712;2023-05-11T02:43:02;99151.91;;;16.85;50.30
71795;BME280;59641;45.188;5.712;2023-05-11T02:45:32;99153.25;;;16.82;50.17
71795;BME280;59641;45.188;5.712;2023-05-11T02:47:59;99147.03;;;16.87;50.09
71795;BME280;59641;45.188;5.712;2023-05-11T02:50:29;99151.91;;;16.90;50.41
71795;BME280;59641;45.188;5.712;2023-05-11T02:53:01;99154.38;;;16.91;50.33
71795;BME280;59641;45.188;5.712;2023-05-11T02:55:28;99158.44;;;16.94;50.45
71795;BME280;59641;45.188;5.712;2023-05-11T02:57:54;99150.31;;;16.94;51.19
71795;BME280;59641;45.188;5.712;2023-05-11T03:00:20;99153.81;;;16.94;51.13
71795;BME280;59641;45.188;5.712;2023-05-11T03:02:45;99145.69;;;16.94;51.10
71795;BME280;59641;45.188;5.712;2023-05-11T03:05:10;99144.88;;;16.94;51.63
71795;BME280;59641;45.188;5.712;2023-05-11T03:07:36;99144.06;;;16.93;51.92
71795;BME280;59641;45.188;5.712;2023-05-11T03:10:02;99145.13;;;16.92;51.85
71795;BME280;59641;45.188;5.712;2023-05-11T03:12:28;99145.13;;;16.92;51.90
71795;BME280;59641;45.188;5.712;2023-05-11T03:14:58;99144.59;;;16.90;52.09
71795;BME280;59641;45.188;5.712;2023-05-11T03:17:25;99139.97;;;16.91;51.70
71795;BME280;59641;45.188;5.712;2023-05-11T03:19:52;99140.25;;;16.89;52.38
71795;BME280;59641;45.188;5.712;2023-05-11T03:22:19;99138.34;;;16.90;52.45
71795;BME280;59641;45.188;5.712;2023-05-11T03:24:46;99137.25;;;16.91;52.46
71795;BME280;59641;45.188;5.712;2023-05-11T03:27:11;99140.81;;;16.91;52.51
71795;BME280;59641;45.188;5.712;2023-05-11T03:29:38;99135.38;;;16.91;52.52
71795;BME280;59641;45.188;5.712;2023-05-11T03:32:06;99133.50;;;16.92;52.39
71795;BME280;59641;45.188;5.712;2023-05-11T03:34:31;99135.09;;;16.93;52.29
71795;BME280;59641;45.188;5.712;2023-05-11T03:36:58;99129.69;;;16.93;52.62
71795;BME280;59641;45.188;5.712;2023-05-11T03:39:26;99126.16;;;16.92;52.36
71795;BME280;59641;45.188;5.712;2023-05-11T03:41:53;99124.81;;;16.90;52.11
71795;BME280;59641;45.188;5.712;2023-05-11T03:44:20;99130.78;;;16.87;52.29
71795;BME280;59641;45.188;5.712;2023-05-11T03:46:46;99122.63;;;16.87;52.44
71795;BME280;59641;45.188;5.712;2023-05-11T03:49:13;99120.75;;;16.87;52.17
71795;BME280;59641;45.188;5.712;2023-05-11T03:51:40;99126.97;;;16.88;52.20
71795;BME280;59641;45.188;5.712;2023-05-11T03:54:06;99115.06;;;16.89;52.48
71795;BME280;59641;45.188;5.712;2023-05-11T03:56:34;99114.78;;;16.90;52.40
71795;BME280;59641;45.188;5.712;2023-05-11T03:59:01;99115.59;;;16.91;52.57
71795;BME280;59641;45.188;5.712;2023-05-11T04:01:28;99114.78;;;16.90;52.82
71795;BME280;59641;45.188;5.712;2023-05-11T04:03:54;99113.97;;;16.90;52.97
71795;BME280;59641;45.188;5.712;2023-05-11T04:06:19;99108.53;;;16.90;52.81
71795;BME280;59641;45.188;5.712;2023-05-11T04:08:44;99106.94;;;16.89;52.69
71795;BME280;59641;45.188;5.712;2023-05-11T04:11:10;99102.88;;;16.86;52.32
71795;BME280;59641;45.188;5.712;2023-05-11T04:13:36;99109.59;;;16.83;52.01
71795;BME280;59641;45.188;5.712;2023-05-11T04:16:01;99109.59;;;16.83;52.06
71795;BME280;59641;45.188;5.712;2023-05-11T04:18:26;99102.00;;;16.80;51.97
71795;BME280;59641;45.188;5.712;2023-05-11T04:20:52;99110.34;;;16.74;51.65
71795;BME280;59641;45.188;5.712;2023-05-11T04:23:17;99111.19;;;16.69;51.90
71795;BME280;59641;45.188;5.712;2023-05-11T04:25:42;99109.53;;;16.68;51.91
71795;BME280;59641;45.188;5.712;2023-05-11T04:28:08;99106.03;;;16.68;51.61
71795;BME280;59641;45.188;5.712;2023-05-11T04:30:33;99109.28;;;16.65;52.06
71795;BME280;59641;45.188;5.712;2023-05-11T04:32:58;99103.84;;;16.65;51.93
71795;BME280;59641;45.188;5.712;2023-05-11T04:35:24;99105.47;;;16.66;51.72
71795;BME280;59641;45.188;5.712;2023-05-11T04:37:49;99107.63;;;16.64;51.72
71795;BME280;59641;45.188;5.712;2023-05-11T04:40:15;99102.44;;;16.57;51.62
71795;BME280;59641;45.188;5.712;2023-05-11T04:42:40;99096.78;;;16.58;51.98
71795;BME280;59641;45.188;5.712;2023-05-11T04:45:06;99103.81;;;16.59;52.10
71795;BME280;59641;45.188;5.712;2023-05-11T04:47:31;99103.00;;;16.59;51.68
71795;BME280;59641;45.188;5.712;2023-05-11T04:49:56;99096.22;;;16.56;52.19
71795;BME280;59641;45.188;5.712;2023-05-11T04:52:22;99096.22;;;16.56;51.64
71795;BME280;59641;45.188;5.712;2023-05-11T04:54:50;99107.06;;;16.56;51.72
71795;BME280;59641;45.188;5.712;2023-05-11T04:57:15;99098.94;;;16.56;51.90
71795;BME280;59641;45.188;5.712;2023-05-11T04:59:41;99101.63;;;16.56;51.70
71795;BME280;59641;45.188;5.712;2023-05-11T05:02:06;99109.75;;;16.56;52.08
71795;BME280;59641;45.188;5.712;2023-05-11T05:04:31;99111.91;;;16.54;51.75
71795;BME280;59641;45.188;5.712;2023-05-11T05:06:57;99112.19;;;16.53;51.92
71795;BME280;59641;45.188;5.712;2023-05-11T05:09:22;99113.56;;;16.55;51.86
71795;BME280;59641;45.188;5.712;2023-05-11T05:11:48;99116.53;;;16.54;51.87
71795;BME280;59641;45.188;5.712;2023-05-11T05:14:13;99117.34;;;16.54;52.21
71795;BME280;59641;45.188;5.712;2023-05-11T05:16:38;99112.47;;;16.56;51.92
71795;BME280;59641;45.188;5.712;2023-05-11T05:19:04;99115.72;;;16.53;51.81
71795;BME280;59641;45.188;5.712;2023-05-11T05:21:29;99114.63;;;16.54;52.08
71795;BME280;59641;45.188;5.712;2023-05-11T05:23:55;99114.91;;;16.53;51.80
71795;BME280;59641;45.188;5.712;2023-05-11T05:26:20;99115.72;;;16.53;52.20
71795;BME280;59641;45.188;5.712;2023-05-11T05:28:45;99111.13;;;16.54;52.01
71795;BME280;59641;45.188;5.712;2023-05-11T05:31:11;99120.88;;;16.55;52.01
71795;BME280;59641;45.188;5.712;2023-05-11T05:33:36;99121.41;;;16.57;51.69
71795;BME280;59641;45.188;5.712;2023-05-11T05:36:02;99121.16;;;16.58;51.95
71795;BME280;59641;45.188;5.712;2023-05-11T05:38:27;99113.84;;;16.59;52.16
71795;BME280;59641;45.188;5.712;2023-05-11T05:40:53;99123.59;;;16.60;51.75
71795;BME280;59641;45.188;5.712;2023-05-11T05:43:18;99120.63;;;16.61;52.12
71795;BME280;59641;45.188;5.712;2023-05-11T05:45:43;99125.53;;;16.65;52.30
71795;BME280;59641;45.188;5.712;2023-05-11T05:48:09;99122.53;;;16.66;52.18
71795;BME280;59641;45.188;5.712;2023-05-11T05:50:34;99124.97;;;16.68;51.99
71795;BME280;59641;45.188;5.712;2023-05-11T05:52:59;99125.25;;;16.71;52.11
71795;BME280;59641;45.188;5.712;2023-05-11T05:55:25;99120.13;;;16.75;51.94
71795;BME280;59641;45.188;5.712;2023-05-11T05:57:50;99123.41;;;16.77;51.78
71795;BME280;59641;45.188;5.712;2023-05-11T06:00:16;99119.38;;;16.79;51.96
71795;BME280;59641;45.188;5.712;2023-05-11T06:02:41;99119.09;;;16.81;51.94
71795;BME280;59641;45.188;5.712;2023-05-11T06:05:07;99120.72;;;16.82;52.00
71795;BME280;59641;45.188;5.712;2023-05-11T06:07:32;99109.06;;;16.81;51.61
71795;BME280;59641;45.188;5.712;2023-05-11T06:09:58;99110.44;;;16.84;51.88
71795;BME280;59641;45.188;5.712;2023-05-11T06:12:23;99100.97;;;16.87;51.80
71795;BME280;59641;45.188;5.712;2023-05-11T06:14:49;99112.06;;;16.90;51.62
71795;BME280;59641;45.188;5.712;2023-05-11T06:17:15;99109.09;;;16.87;51.38
71795;BME280;59641;45.188;5.712;2023-05-11T06:19:40;99110.94;;;16.81;51.61
71795;BME280;59641;45.188;5.712;2023-05-11T06:22:06;99116.13;;;16.88;51.62
71795;BME280;59641;45.188;5.712;2023-05-11T06:24:31;99106.09;;;16.88;51.95
71795;BME280;59641;45.188;5.712;2023-05-11T06:26:57;99112.34;;;16.89;51.69
71795;BME280;59641;45.188;5.712;2023-05-11T06:29:22;99104.75;;;16.91;51.46
71795;BME280;59641;45.188;5.712;2023-05-11T06:31:48;99105.59;;;16.96;51.82
71795;BME280;59641;45.188;5.712;2023-05-11T06:34:18;99101.53;;;16.99;51.56
71795;BME280;59641;45.188;5.712;2023-05-11T06:36:44;99101.25;;;17.00;51.85
71795;BME280;59641;45.188;5.712;2023-05-11T06:39:10;99093.94;;;17.01;51.51
71795;BME280;59641;45.188;5.712;2023-05-11T06:41:35;99099.91;;;17.03;51.60
71795;BME280;59641;45.188;5.712;2023-05-11T06:44:01;99101.28;;;17.06;51.60
71795;BME280;59641;45.188;5.712;2023-05-11T06:46:26;99097.47;;;17.07;51.75
71795;BME280;59641;45.188;5.712;2023-05-11T06:48:51;99099.63;;;17.10;51.57
71795;BME280;59641;45.188;5.712;2023-05-11T06:51:17;99096.38;;;17.08;51.67
71795;BME280;59641;45.188;5.712;2023-05-11T06:53:42;99097.22;;;17.08;51.36
71795;BME280;59641;45.188;5.712;2023-05-11T06:56:08;99097.22;;;17.08;51.40
71795;BME280;59641;45.188;5.712;2023-05-11T06:58:33;99099.09;;;17.08;51.88
71795;BME280;59641;45.188;5.712;2023-05-11T07:00:58;99104.00;;;17.11;51.56
71795;BME280;59641;45.188;5.712;2023-05-11T07:03:24;99099.13;;;17.13;51.64
71795;BME280;59641;45.188;5.712;2023-05-11T07:05:49;99093.16;;;17.16;51.52
71795;BME280;59641;45.188;5.712;2023-05-11T07:08:14;99096.41;;;17.18;51.65
71795;BME280;59641;45.188;5.712;2023-05-11T07:10:40;99095.59;;;17.17;51.43
71795;BME280;59641;45.188;5.712;2023-05-11T07:13:06;99089.34;;;17.22;51.47
71795;BME280;59641;45.188;5.712;2023-05-11T07:15:31;99099.13;;;17.23;51.31
71795;BME280;59641;45.188;5.712;2023-05-11T07:17:57;99102.63;;;17.23;51.16
71795;BME280;59641;45.188;5.712;2023-05-11T07:20:22;99093.44;;;17.24;51.31
71795;BME280;59641;45.188;5.712;2023-05-11T07:22:47;99092.34;;;17.25;51.52
71795;BME280;59641;45.188;5.712;2023-05-11T07:25:13;99094.50;;;17.29;51.33
71795;BME280;59641;45.188;5.712;2023-05-11T07:27:38;99098.31;;;17.33;51.39
71795;BME280;59641;45.188;5.712;2023-05-11T07:30:04;99089.63;;;17.36;51.21
71795;BME280;59641;45.188;5.712;2023-05-11T07:32:30;99089.63;;;17.36;50.93
71795;BME280;59641;45.188;5.712;2023-05-11T07:34:55;99089.06;;;17.34;50.95
71795;BME280;59641;45.188;5.712;2023-05-11T07:37:21;99089.63;;;17.36;51.21
71795;BME280;59641;45.188;5.712;2023-05-11T07:39:46;99082.56;;;17.40;50.79
71795;BME280;59641;45.188;5.712;2023-05-11T07:42:12;99095.88;;;17.41;50.71
71795;BME280;59641;45.188;5.712;2023-05-11T07:44:37;99085.84;;;17.42;51.08
71795;BME280;59641;45.188;5.712;2023-05-11T07:47:02;99084.50;;;17.39;51.29
71795;BME280;59641;45.188;5.712;2023-05-11T07:49:28;99077.41;;;17.38;51.06
71795;BME280;59641;45.188;5.712;2023-05-11T07:51:53;99073.09;;;17.37;50.95
71795;BME280;59641;45.188;5.712;2023-05-11T07:54:18;99086.09;;;17.35;51.10
71795;BME280;59641;45.188;5.712;2023-05-11T07:56:44;99066.31;;;17.35;51.10
71795;BME280;59641;45.188;5.712;2023-05-11T07:59:09;99064.41;;;17.35;51.17
71795;BME280;59641;45.188;5.712;2023-05-11T08:01:37;99064.94;;;17.37;51.31
71795;BME280;59641;45.188;5.712;2023-05-11T08:04:03;99063.59;;;17.40;51.59
71795;BME280;59641;45.188;5.712;2023-05-11T08:06:28;99056.81;;;17.42;51.13
71795;BME280;59641;45.188;5.712;2023-05-11T08:08:54;99054.66;;;17.44;51.38
71795;BME280;59641;45.188;5.712;2023-05-11T08:11:19;99052.19;;;17.48;51.54
71795;BME280;59641;45.188;5.712;2023-05-11T08:13:45;99053.53;;;17.51;51.29
71795;BME280;59641;45.188;5.712;2023-05-11T08:16:11;99053.00;;;17.54;51.05
71795;BME280;59641;45.188;5.712;2023-05-11T08:18:36;99047.84;;;17.57;51.10
71795;BME280;59641;45.188;5.712;2023-05-11T08:21:02;99060.03;;;17.65;51.08
71795;BME280;59641;45.188;5.712;2023-05-11T08:23:27;99042.94;;;17.70;51.04
71795;BME280;59641;45.188;5.712;2023-05-11T08:25:54;99049.19;;;17.75;51.02
71795;BME280;59641;45.188;5.712;2023-05-11T08:28:20;99047.28;;;17.81;51.05
71795;BME280;59641;45.188;5.712;2023-05-11T08:30:46;99040.50;;;17.83;50.98
71795;BME280;59641;45.188;5.712;2023-05-11T08:33:12;99038.88;;;17.87;50.75
71795;BME280;59641;45.188;5.712;2023-05-11T08:35:38;99032.34;;;17.88;50.59
71795;BME280;59641;45.188;5.712;2023-05-11T08:38:04;99031.25;;;17.95;50.39
71795;BME280;59641;45.188;5.712;2023-05-11T08:40:30;99026.34;;;17.97;50.61
71795;BME280;59641;45.188;5.712;2023-05-11T08:42:55;99026.34;;;18.02;50.56
71795;BME280;59641;45.188;5.712;2023-05-11T08:45:22;99024.41;;;18.07;50.49
71795;BME280;59641;45.188;5.712;2023-05-11T08:47:48;99017.38;;;18.06;49.95
71795;BME280;59641;45.188;5.712;2023-05-11T08:50:13;99023.31;;;18.08;50.10
71795;BME280;59641;45.188;5.712;2023-05-11T08:52:39;99026.84;;;18.14;50.08
71795;BME280;59641;45.188;5.712;2023-05-11T08:55:08;99024.13;;;18.14;49.38
71795;BME280;59641;45.188;5.712;2023-05-11T08:57:34;99018.38;;;18.16;49.65
71795;BME280;59641;45.188;5.712;2023-05-11T09:00:01;99014.31;;;18.18;49.44
71795;BME280;59641;45.188;5.712;2023-05-11T09:02:27;99011.84;;;18.22;49.24
71795;BME280;59641;45.188;5.712;2023-05-11T09:04:53;99011.28;;;18.25;49.05
71795;BME280;59641;45.188;5.712;2023-05-11T09:07:20;99002.03;;;18.31;49.72
71795;BME280;59641;45.188;5.712;2023-05-11T09:09:46;99003.13;;;18.35;49.58
71795;BME280;59641;45.188;5.712;2023-05-11T09:12:12;99009.59;;;18.39;49.50
71795;BME280;59641;45.188;5.712;2023-05-11T09:14:38;99000.38;;;18.40;48.71
71795;BME280;59641;45.188;5.712;2023-05-11T09:17:04;98999.25;;;18.41;48.65
71795;BME280;59641;45.188;5.712;2023-05-11T09:19:29;98997.63;;;18.45;49.15
71795;BME280;59641;45.188;5.712;2023-05-11T09:21:55;99000.31;;;18.50;48.79
71795;BME280;59641;45.188;5.712;2023-05-11T09:24:22;98998.94;;;18.53;48.44
71795;BME280;59641;45.188;5.712;2023-05-11T09:26:48;99006.78;;;18.60;48.19
71795;BME280;59641;45.188;5.712;2023-05-11T09:29:13;98991.00;;;18.57;48.54
71795;BME280;59641;45.188;5.712;2023-05-11T09:31:40;98977.97;;;18.59;48.52
71795;BME280;59641;45.188;5.712;2023-05-11T09:36:42;98976.88;;;18.60;47.92
71795;BME280;59641;45.188;5.712;2023-05-11T09:39:09;98987.44;;;18.61;47.89
71795;BME280;59641;45.188;5.712;2023-05-11T09:41:34;98984.47;;;18.63;47.74
71795;BME280;59641;45.188;5.712;2023-05-11T09:44:13;98982.28;;;18.65;47.75
71795;BME280;59641;45.188;5.712;2023-05-11T09:46:43;98968.38;;;18.66;46.86
71795;BME280;59641;45.188;5.712;2023-05-11T09:49:10;98972.97;;;18.71;47.37
71795;BME280;59641;45.188;5.712;2023-05-11T09:51:38;98968.38;;;18.77;47.25
71795;BME280;59641;45.188;5.712;2023-05-11T09:54:16;98970.47;;;18.85;47.28
71795;BME280;59641;45.188;5.712;2023-05-11T09:56:51;98954.41;;;18.88;46.89
71795;BME280;59641;45.188;5.712;2023-05-11T09:59:40;98966.84;;;18.94;47.24
71795;BME280;59641;45.188;5.712;2023-05-11T10:02:25;98964.94;;;18.95;47.20
71795;BME280;59641;45.188;5.712;2023-05-11T10:05:10;98955.72;;;18.96;46.79
71795;BME280;59641;45.188;5.712;2023-05-11T10:07:36;98955.94;;;19.00;46.92
71795;BME280;59641;45.188;5.712;2023-05-11T10:10:04;98946.94;;;19.04;47.09
71795;BME280;59641;45.188;5.712;2023-05-11T10:12:31;98960.53;;;19.04;46.39
71795;BME280;59641;45.188;5.712;2023-05-11T10:15:06;98954.28;;;19.04;46.33
71795;BME280;59641;45.188;5.712;2023-05-11T10:17:32;98950.75;;;19.03;45.84
71795;BME280;59641;45.188;5.712;2023-05-11T10:19:59;98951.28;;;19.05;46.05
71795;BME280;59641;45.188;5.712;2023-05-11T10:22:27;98947.22;;;19.03;46.28
71795;BME280;59641;45.188;5.712;2023-05-11T10:24:54;98939.88;;;19.03;46.49
71795;BME280;59641;45.188;5.712;2023-05-11T10:27:21;98939.06;;;19.03;46.21
71795;BME280;59641;45.188;5.712;2023-05-11T10:29:47;98937.75;;;19.00;46.14
71795;BME280;59641;45.188;5.712;2023-05-11T10:32:14;98938.28;;;18.97;45.77
71795;BME280;59641;45.188;5.712;2023-05-11T10:34:41;98943.72;;;18.97;45.98
71795;BME280;59641;45.188;5.712;2023-05-11T10:37:07;98939.63;;;19.00;46.24
71795;BME280;59641;45.188;5.712;2023-05-11T10:39:37;98946.41;;;19.02;46.15
71795;BME280;59641;45.188;5.712;2023-05-11T10:50:51;98933.63;;;19.03;45.53
71795;BME280;59641;45.188;5.712;2023-05-11T10:56:51;98917.88;;;19.00;45.12
71795;BME280;59641;45.188;5.712;2023-05-11T11:02:09;98906.44;;;19.03;45.24
71795;BME280;59641;45.188;5.712;2023-05-11T11:07:11;98918.06;;;19.08;45.05
71795;BME280;59641;45.188;5.712;2023-05-11T11:12:30;98900.59;;;19.14;45.36
71795;BME280;59641;45.188;5.712;2023-05-11T11:15:01;98892.16;;;19.16;44.81
71795;BME280;59641;45.188;5.712;2023-05-11T11:17:31;98887.47;;;19.22;44.96
71795;BME280;59641;45.188;5.712;2023-05-11T11:19:57;98886.59;;;19.26;45.12
71795;BME280;59641;45.188;5.712;2023-05-11T11:25:00;98873.78;;;19.32;44.50
71795;BME280;59641;45.188;5.712;2023-05-11T11:32:50;98873.47;;;19.33;43.34
71795;BME280;59641;45.188;5.712;2023-05-11T11:38:07;98862.03;;;19.36;43.57
71795;BME280;59641;45.188;5.712;2023-05-11T11:40:46;98856.28;;;19.38;44.03
71795;BME280;59641;45.188;5.712;2023-05-11T11:43:21;98849.09;;;19.47;44.06
71795;BME280;59641;45.188;5.712;2023-05-11T11:45:54;98853.53;;;19.62;44.50
71795;BME280;59641;45.188;5.712;2023-05-11T11:48:40;98846.03;;;19.78;44.05
71795;BME280;59641;45.188;5.712;2023-05-11T11:51:07;98846.19;;;19.87;43.53
71795;BME280;59641;45.188;5.712;2023-05-11T12:01:11;98839.47;;;20.17;42.93
71795;BME280;59641;45.188;5.712;2023-05-11T12:03:38;98832.19;;;20.12;43.12
71795;BME280;59641;45.188;5.712;2023-05-11T12:06:05;98822.75;;;20.05;42.74
71795;BME280;59641;45.188;5.712;2023-05-11T12:08:32;98833.75;;;19.99;43.17
71795;BME280;59641;45.188;5.712;2023-05-11T12:10:59;98834.34;;;19.96;43.72
71795;BME280;59641;45.188;5.712;2023-05-11T12:13:26;98838.75;;;19.92;44.69
71795;BME280;59641;45.188;5.712;2023-05-11T12:16:11;98836.38;;;19.86;44.68
71795;BME280;59641;45.188;5.712;2023-05-11T12:18:37;98822.31;;;19.78;45.15
71795;BME280;59641;45.188;5.712;2023-05-11T12:21:03;98827.25;;;19.76;44.71
71795;BME280;59641;45.188;5.712;2023-05-11T12:23:29;98826.72;;;19.74;44.63
71795;BME280;59641;45.188;5.712;2023-05-11T12:26:01;98822.59;;;19.77;44.11
71795;BME280;59641;45.188;5.712;2023-05-11T12:28:27;98821.53;;;19.78;43.60
71795;BME280;59641;45.188;5.712;2023-05-11T12:30:56;98818.78;;;19.78;43.00
71795;BME280;59641;45.188;5.712;2023-05-11T12:33:21;98816.88;;;19.78;42.73
71795;BME280;59641;45.188;5.712;2023-05-11T12:35:55;98820.84;;;19.86;43.51
71795;BME280;59641;45.188;5.712;2023-05-11T12:38:21;98811.16;;;19.99;42.31
71795;BME280;59641;45.188;5.712;2023-05-11T12:40:48;98801.13;;;20.13;42.18
71795;BME280;59641;45.188;5.712;2023-05-11T12:43:18;98798.75;;;20.26;42.24
71795;BME280;59641;45.188;5.712;2023-05-11T12:45:44;98797.53;;;20.32;40.88
71795;BME280;59641;45.188;5.712;2023-05-11T12:48:10;98798.16;;;20.29;39.93
71795;BME280;59641;45.188;5.712;2023-05-11T12:50:44;98802.00;;;20.28;41.26
71795;BME280;59641;45.188;5.712;2023-05-11T12:53:17;98790.88;;;20.24;42.03
71795;BME280;59641;45.188;5.712;2023-05-11T12:55:44;98786.53;;;20.23;41.73
71795;BME280;59641;45.188;5.712;2023-05-11T12:58:13;98793.06;;;20.22;42.67
71795;BME280;59641;45.188;5.712;2023-05-11T13:01:08;98798.53;;;20.22;42.92
71795;BME280;59641;45.188;5.712;2023-05-11T13:03:35;98806.78;;;20.17;41.95
71795;BME280;59641;45.188;5.712;2023-05-11T13:06:08;98795.69;;;20.13;42.18
71795;BME280;59641;45.188;5.712;2023-05-11T13:08:35;98790.53;;;20.12;42.09
71795;BME280;59641;45.188;5.712;2023-05-11T13:13:53;98779.34;;;20.13;42.08
71795;BME280;59641;45.188;5.712;2023-05-11T13:16:29;98788.84;;;20.16;42.25
71795;BME280;59641;45.188;5.712;2023-05-11T13:18:58;98780.94;;;20.14;42.27
71795;BME280;59641;45.188;5.712;2023-05-11T13:21:24;98779.34;;;20.13;42.08
71795;BME280;59641;45.188;5.712;2023-05-11T13:23:50;98769.53;;;20.12;42.04
71795;BME280;59641;45.188;5.712;2023-05-11T13:26:24;98769.00;;;20.10;42.66
71795;BME280;59641;45.188;5.712;2023-05-11T13:28:49;98772.63;;;20.06;41.95
71795;BME280;59641;45.188;5.712;2023-05-11T13:31:15;98778.91;;;20.06;42.16
71795;BME280;59641;45.188;5.712;2023-05-11T13:33:41;98774.03;;;20.03;42.16
71795;BME280;59641;45.188;5.712;2023-05-11T13:36:07;98774.34;;;20.02;41.87
71795;BME280;59641;45.188;5.712;2023-05-11T13:38:32;98766.19;;;20.02;41.45
71795;BME280;59641;45.188;5.712;2023-05-11T13:40:58;98763.13;;;20.03;41.84
71795;BME280;59641;45.188;5.712;2023-05-11T13:43:23;98765.78;;;20.08;42.09
71795;BME280;59641;45.188;5.712;2023-05-11T13:45:49;98762.16;;;20.13;42.32
71795;BME280;59641;45.188;5.712;2023-05-11T13:48:14;98766.72;;;20.17;41.40
71795;BME280;59641;45.188;5.712;2023-05-11T13:50:40;98769.69;;;20.21;41.38